Silver Star, Montana
Current Conditions -  °F | °C
As of 7:53 PM on Wednesday 22 Oct 2014 (Local Time) from KBTM Reporting Station
Clear Clear  
Wind Chill: 35°   Ceiling: Unl
Heat Index: 40°   Visibility: 10mi
Dew Point: 32°   Wind: 7mph
Humidity: 73%   Direction: 200°SSW
Pressure: 30.05"   Gusts: NA
Location:  45.69°N, 112.28°W
Report Text: KBTM 230153Z AUTO 20006KT 10SM CLR 04/00 A3005 RMK AO2 SLP194 T00440000
Loading
Personal Weather Stations






























Interactive Weather Map New forecast layout! Learn more

10-Day Weather Forecast

Advertisements
Track Severe Weather on mobile